sensor_id;sensor_type;location;lat;lon;timestamp;pressure;altitude;pressure_sealevel;temperature;humidity
45441;BME280;31189;38.790;-77.084;2022-11-23T00:01:50;102279.48;;;9.62;29.95
45441;BME280;31189;38.790;-77.084;2022-11-23T00:04:17;102276.34;;;9.86;30.17
45441;BME280;31189;38.790;-77.084;2022-11-23T00:06:45;102272.85;;;9.39;29.97
45441;BME280;31189;38.790;-77.084;2022-11-23T00:09:12;102274.11;;;8.98;30.27
45441;BME280;31189;38.790;-77.084;2022-11-23T00:11:40;102271.31;;;9.94;29.44
45441;BME280;31189;38.790;-77.084;2022-11-23T00:14:08;102272.00;;;9.75;30.41
45441;BME280;31189;38.790;-77.084;2022-11-23T00:16:36;102268.68;;;9.49;29.75
45441;BME280;31189;38.790;-77.084;2022-11-23T00:19:04;102263.99;;;9.50;29.60
45441;BME280;31189;38.790;-77.084;2022-11-23T00:21:33;102260.31;;;9.42;29.94
45441;BME280;31189;38.790;-77.084;2022-11-23T00:24:00;102262.19;;;9.48;30.50
45441;BME280;31189;38.790;-77.084;2022-11-23T00:26:28;102258.96;;;9.64;30.03
45441;BME280;31189;38.790;-77.084;2022-11-23T00:28:57;102254.31;;;9.52;29.75
45441;BME280;31189;38.790;-77.084;2022-11-23T00:31:24;102250.73;;;9.85;29.62
45441;BME280;31189;38.790;-77.084;2022-11-23T00:33:53;102251.13;;;9.63;29.89
45441;BME280;31189;38.790;-77.084;2022-11-23T00:36:23;102250.30;;;9.83;29.60
45441;BME280;31189;38.790;-77.084;2022-11-23T00:38:52;102248.00;;;9.16;29.66
45441;BME280;31189;38.790;-77.084;2022-11-23T00:41:22;102248.43;;;8.45;30.32
45441;BME280;31189;38.790;-77.084;2022-11-23T00:43:50;102238.43;;;8.93;30.24
45441;BME280;31189;38.790;-77.084;2022-11-23T00:46:19;102234.60;;;8.71;30.32
45441;BME280;31189;38.790;-77.084;2022-11-23T00:48:50;102234.21;;;8.48;30.44
45441;BME280;31189;38.790;-77.084;2022-11-23T00:51:20;102232.31;;;8.51;30.11
45441;BME280;31189;38.790;-77.084;2022-11-23T00:53:49;102231.65;;;8.47;30.29
45441;BME280;31189;38.790;-77.084;2022-11-23T00:56:18;102233.61;;;8.02;31.34
45441;BME280;31189;38.790;-77.084;2022-11-23T00:58:47;102230.42;;;7.84;31.87
45441;BME280;31189;38.790;-77.084;2022-11-23T01:01:17;102229.42;;;7.70;32.29
45441;BME280;31189;38.790;-77.084;2022-11-23T01:03:46;102231.65;;;7.61;32.85
45441;BME280;31189;38.790;-77.084;2022-11-23T01:06:16;102231.53;;;7.20;33.03
45441;BME280;31189;38.790;-77.084;2022-11-23T01:08:48;102230.03;;;7.51;32.96
45441;BME280;31189;38.790;-77.084;2022-11-23T01:11:17;102232.23;;;7.32;33.20
45441;BME280;31189;38.790;-77.084;2022-11-23T01:13:45;102231.65;;;7.31;33.56
45441;BME280;31189;38.790;-77.084;2022-11-23T01:16:15;102232.89;;;7.24;33.57
45441;BME280;31189;38.790;-77.084;2022-11-23T01:18:43;102232.24;;;6.53;34.41
45441;BME280;31189;38.790;-77.084;2022-11-23T01:21:11;102230.64;;;6.54;34.98
45441;BME280;31189;38.790;-77.084;2022-11-23T01:23:39;102229.47;;;6.61;34.41
45441;BME280;31189;38.790;-77.084;2022-11-23T01:26:08;102231.51;;;6.81;34.42
45441;BME280;31189;38.790;-77.084;2022-11-23T01:28:37;102231.76;;;7.00;34.71
45441;BME280;31189;38.790;-77.084;2022-11-23T01:31:08;102226.82;;;7.02;34.61
45441;BME280;31189;38.790;-77.084;2022-11-23T01:33:36;102223.73;;;6.80;34.70
45441;BME280;31189;38.790;-77.084;2022-11-23T01:36:09;102228.23;;;6.48;35.27
45441;BME280;31189;38.790;-77.084;2022-11-23T01:38:38;102228.59;;;6.76;35.12
45441;BME280;31189;38.790;-77.084;2022-11-23T01:41:08;102226.54;;;7.10;35.58
45441;BME280;31189;38.790;-77.084;2022-11-23T01:43:35;102223.17;;;6.80;35.94
45441;BME280;31189;38.790;-77.084;2022-11-23T01:46:04;102221.69;;;6.68;35.30
45441;BME280;31189;38.790;-77.084;2022-11-23T01:48:35;102225.29;;;6.36;35.51
45441;BME280;31189;38.790;-77.084;2022-11-23T01:51:08;102225.00;;;6.48;35.06
45441;BME280;31189;38.790;-77.084;2022-11-23T01:53:38;102221.21;;;6.31;35.34
45441;BME280;31189;38.790;-77.084;2022-11-23T01:56:09;102220.16;;;6.71;35.04
45441;BME280;31189;38.790;-77.084;2022-11-23T01:58:39;102216.78;;;6.63;34.93
45441;BME280;31189;38.790;-77.084;2022-11-23T02:01:09;102220.44;;;6.24;35.44
45441;BME280;31189;38.790;-77.084;2022-11-23T02:03:37;102226.15;;;6.37;35.88
45441;BME280;31189;38.790;-77.084;2022-11-23T02:06:08;102227.18;;;6.32;35.87
45441;BME280;31189;38.790;-77.084;2022-11-23T02:08:38;102227.60;;;6.59;36.02
45441;BME280;31189;38.790;-77.084;2022-11-23T02:11:06;102231.23;;;5.68;36.78
45441;BME280;31189;38.790;-77.084;2022-11-23T02:13:34;102229.23;;;6.22;36.26
45441;BME280;31189;38.790;-77.084;2022-11-23T02:16:02;102226.89;;;6.46;36.16
45441;BME280;31189;38.790;-77.084;2022-11-23T02:18:31;102225.56;;;6.23;36.19
45441;BME280;31189;38.790;-77.084;2022-11-23T02:21:03;102227.79;;;5.78;36.70
45441;BME280;31189;38.790;-77.084;2022-11-23T02:23:35;102224.26;;;6.08;36.71
45441;BME280;31189;38.790;-77.084;2022-11-23T02:26:11;102223.99;;;5.82;37.00
45441;BME280;31189;38.790;-77.084;2022-11-23T02:28:43;102221.21;;;5.86;37.01
45441;BME280;31189;38.790;-77.084;2022-11-23T02:31:12;102218.18;;;5.47;37.30
45441;BME280;31189;38.790;-77.084;2022-11-23T02:33:40;102218.70;;;5.86;37.86
45441;BME280;31189;38.790;-77.084;2022-11-23T02:36:34;102216.54;;;5.46;37.91
45441;BME280;31189;38.790;-77.084;2022-11-23T02:39:09;102215.30;;;5.34;37.80
45441;BME280;31189;38.790;-77.084;2022-11-23T02:41:40;102212.33;;;4.98;38.90
45441;BME280;31189;38.790;-77.084;2022-11-23T02:44:17;102209.74;;;4.71;39.38
45441;BME280;31189;38.790;-77.084;2022-11-23T02:46:48;102210.09;;;5.26;38.76
45441;BME280;31189;38.790;-77.084;2022-11-23T02:49:16;102207.23;;;5.28;38.64
45441;BME280;31189;38.790;-77.084;2022-11-23T02:51:44;102205.00;;;5.24;38.43
45441;BME280;31189;38.790;-77.084;2022-11-23T02:54:12;102201.77;;;5.08;38.24
45441;BME280;31189;38.790;-77.084;2022-11-23T02:56:40;102199.96;;;5.39;37.94
45441;BME280;31189;38.790;-77.084;2022-11-23T02:59:07;102197.59;;;5.67;37.04
45441;BME280;31189;38.790;-77.084;2022-11-23T03:01:35;102198.55;;;4.94;37.92
45441;BME280;31189;38.790;-77.084;2022-11-23T03:04:03;102196.39;;;5.35;37.83
45441;BME280;31189;38.790;-77.084;2022-11-23T03:06:31;102198.92;;;5.68;37.30
45441;BME280;31189;38.790;-77.084;2022-11-23T03:08:59;102197.27;;;5.94;36.62
45441;BME280;31189;38.790;-77.084;2022-11-23T03:11:27;102195.73;;;5.85;37.18
45441;BME280;31189;38.790;-77.084;2022-11-23T03:13:55;102192.86;;;5.81;37.07
45441;BME280;31189;38.790;-77.084;2022-11-23T03:16:23;102195.40;;;6.16;36.34
45441;BME280;31189;38.790;-77.084;2022-11-23T03:18:51;102196.05;;;6.53;36.13
45441;BME280;31189;38.790;-77.084;2022-11-23T03:21:19;102191.95;;;6.39;36.02
45441;BME280;31189;38.790;-77.084;2022-11-23T03:23:47;102187.72;;;6.50;35.67
45441;BME280;31189;38.790;-77.084;2022-11-23T03:26:16;102187.46;;;6.08;36.48
45441;BME280;31189;38.790;-77.084;2022-11-23T03:28:43;102190.79;;;5.63;36.72
45441;BME280;31189;38.790;-77.084;2022-11-23T03:31:11;102185.68;;;5.56;36.88
45441;BME280;31189;38.790;-77.084;2022-11-23T03:33:39;102181.40;;;5.36;37.57
45441;BME280;31189;38.790;-77.084;2022-11-23T03:36:07;102178.77;;;5.17;37.83
45441;BME280;31189;38.790;-77.084;2022-11-23T03:38:35;102181.19;;;5.56;37.37
45441;BME280;31189;38.790;-77.084;2022-11-23T03:41:04;102183.13;;;5.54;37.78
45441;BME280;31189;38.790;-77.084;2022-11-23T03:43:32;102182.60;;;5.59;37.81
45441;BME280;31189;38.790;-77.084;2022-11-23T03:45:59;102188.90;;;5.82;37.56
45441;BME280;31189;38.790;-77.084;2022-11-23T03:48:27;102189.53;;;5.57;37.56
45441;BME280;31189;38.790;-77.084;2022-11-23T03:50:55;102196.06;;;5.80;37.19
45441;BME280;31189;38.790;-77.084;2022-11-23T03:53:26;102195.77;;;5.30;37.97
45441;BME280;31189;38.790;-77.084;2022-11-23T03:55:54;102199.41;;;5.48;37.90
45441;BME280;31189;38.790;-77.084;2022-11-23T03:58:23;102203.87;;;4.59;39.11
45441;BME280;31189;38.790;-77.084;2022-11-23T04:00:54;102201.55;;;4.80;39.89
45441;BME280;31189;38.790;-77.084;2022-11-23T04:03:23;102201.14;;;4.71;39.99
45441;BME280;31189;38.790;-77.084;2022-11-23T04:05:51;102199.88;;;4.61;39.75
45441;BME280;31189;38.790;-77.084;2022-11-23T04:08:21;102199.19;;;4.52;40.18
45441;BME280;31189;38.790;-77.084;2022-11-23T04:10:50;102196.52;;;5.36;39.49
45441;BME280;31189;38.790;-77.084;2022-11-23T04:13:20;102193.04;;;5.05;39.99
45441;BME280;31189;38.790;-77.084;2022-11-23T04:15:49;102191.24;;;5.48;38.98
45441;BME280;31189;38.790;-77.084;2022-11-23T04:18:18;102191.12;;;5.70;38.20
45441;BME280;31189;38.790;-77.084;2022-11-23T04:20:47;102189.71;;;5.57;38.54
45441;BME280;31189;38.790;-77.084;2022-11-23T04:23:17;102187.44;;;5.60;38.74
45441;BME280;31189;38.790;-77.084;2022-11-23T04:25:45;102190.12;;;5.63;38.27
45441;BME280;31189;38.790;-77.084;2022-11-23T04:28:14;102191.03;;;4.66;39.26
45441;BME280;31189;38.790;-77.084;2022-11-23T04:30:44;102187.20;;;4.86;39.99
45441;BME280;31189;38.790;-77.084;2022-11-23T04:33:12;102183.34;;;4.49;40.74
45441;BME280;31189;38.790;-77.084;2022-11-23T04:35:41;102178.24;;;4.91;41.03
45441;BME280;31189;38.790;-77.084;2022-11-23T04:38:10;102176.07;;;4.09;42.04
45441;BME280;31189;38.790;-77.084;2022-11-23T04:40:38;102175.97;;;4.90;40.73
45441;BME280;31189;38.790;-77.084;2022-11-23T04:43:06;102168.88;;;5.23;40.31
45441;BME280;31189;38.790;-77.084;2022-11-23T04:45:39;102167.71;;;5.19;40.67
45441;BME280;31189;38.790;-77.084;2022-11-23T04:48:08;102165.28;;;4.86;40.52
45441;BME280;31189;38.790;-77.084;2022-11-23T04:50:37;102166.03;;;4.83;40.80
45441;BME280;31189;38.790;-77.084;2022-11-23T04:53:07;102165.45;;;4.91;41.60
45441;BME280;31189;38.790;-77.084;2022-11-23T04:55:35;102164.56;;;4.80;40.72
45441;BME280;31189;38.790;-77.084;2022-11-23T04:58:05;102160.85;;;4.52;41.40
45441;BME280;31189;38.790;-77.084;2022-11-23T05:00:34;102156.13;;;4.14;42.20
45441;BME280;31189;38.790;-77.084;2022-11-23T05:03:02;102151.35;;;4.49;42.38
45441;BME280;31189;38.790;-77.084;2022-11-23T05:05:31;102150.49;;;3.69;43.10
45441;BME280;31189;38.790;-77.084;2022-11-23T05:07:59;102147.69;;;4.32;42.82
45441;BME280;31189;38.790;-77.084;2022-11-23T05:10:29;102145.15;;;3.77;43.84
45441;BME280;31189;38.790;-77.084;2022-11-23T05:12:57;102142.98;;;3.87;44.42
45441;BME280;31189;38.790;-77.084;2022-11-23T05:15:26;102142.49;;;3.73;45.00
45441;BME280;31189;38.790;-77.084;2022-11-23T05:17:59;102140.94;;;3.80;44.96
45441;BME280;31189;38.790;-77.084;2022-11-23T05:20:28;102143.97;;;3.62;45.33
45441;BME280;31189;38.790;-77.084;2022-11-23T05:22:57;102137.71;;;3.77;44.63
45441;BME280;31189;38.790;-77.084;2022-11-23T05:25:26;102131.51;;;4.22;44.32
45441;BME280;31189;38.790;-77.084;2022-11-23T05:27:58;102125.92;;;3.98;44.50
45441;BME280;31189;38.790;-77.084;2022-11-23T05:30:27;102124.61;;;3.85;45.13
45441;BME280;31189;38.790;-77.084;2022-11-23T05:33:00;102123.66;;;4.00;44.09
45441;BME280;31189;38.790;-77.084;2022-11-23T05:35:29;102121.86;;;3.78;44.39
45441;BME280;31189;38.790;-77.084;2022-11-23T05:37:57;102121.72;;;3.67;44.76
45441;BME280;31189;38.790;-77.084;2022-11-23T05:40:25;102117.97;;;3.90;44.77
45441;BME280;31189;38.790;-77.084;2022-11-23T05:42:54;102113.88;;;4.49;44.60
45441;BME280;31189;38.790;-77.084;2022-11-23T05:45:24;102114.02;;;4.05;44.71
45441;BME280;31189;38.790;-77.084;2022-11-23T05:47:54;102117.49;;;3.78;46.21
45441;BME280;31189;38.790;-77.084;2022-11-23T05:50:24;102119.93;;;3.39;46.45
45441;BME280;31189;38.790;-77.084;2022-11-23T05:52:54;102119.59;;;4.28;46.02
45441;BME280;31189;38.790;-77.084;2022-11-23T05:55:22;102116.81;;;4.08;45.83
45441;BME280;31189;38.790;-77.084;2022-11-23T05:57:50;102116.85;;;4.51;45.85
45441;BME280;31189;38.790;-77.084;2022-11-23T06:00:20;102115.57;;;4.74;44.84
45441;BME280;31189;38.790;-77.084;2022-11-23T06:02:50;102112.55;;;4.24;44.93
45441;BME280;31189;38.790;-77.084;2022-11-23T06:05:18;102110.05;;;4.10;45.07
45441;BME280;31189;38.790;-77.084;2022-11-23T06:07:53;102107.35;;;4.60;45.32
45441;BME280;31189;38.790;-77.084;2022-11-23T06:10:21;102105.71;;;4.32;45.10
45441;BME280;31189;38.790;-77.084;2022-11-23T06:12:50;102106.10;;;4.23;46.04
45441;BME280;31189;38.790;-77.084;2022-11-23T06:15:18;102105.76;;;3.93;46.34
45441;BME280;31189;38.790;-77.084;2022-11-23T06:17:46;102103.00;;;3.89;45.95
45441;BME280;31189;38.790;-77.084;2022-11-23T06:20:14;102108.86;;;4.05;46.49
45441;BME280;31189;38.790;-77.084;2022-11-23T06:22:50;102113.22;;;3.12;48.16
45441;BME280;31189;38.790;-77.084;2022-11-23T06:25:19;102118.58;;;3.42;46.86
45441;BME280;31189;38.790;-77.084;2022-11-23T06:27:53;102116.83;;;4.73;44.56
45441;BME280;31189;38.790;-77.084;2022-11-23T06:30:22;102118.66;;;4.88;43.68
45441;BME280;31189;38.790;-77.084;2022-11-23T06:32:49;102118.50;;;4.67;43.78
45441;BME280;31189;38.790;-77.084;2022-11-23T06:35:18;102122.01;;;4.25;44.56
45441;BME280;31189;38.790;-77.084;2022-11-23T06:37:47;102125.58;;;4.18;45.03
45441;BME280;31189;38.790;-77.084;2022-11-23T06:40:16;102127.78;;;3.96;45.18
45441;BME280;31189;38.790;-77.084;2022-11-23T06:42:44;102132.56;;;4.05;45.35
45441;BME280;31189;38.790;-77.084;2022-11-23T06:45:12;102136.17;;;3.36;46.95
45441;BME280;31189;38.790;-77.084;2022-11-23T06:47:40;102136.04;;;4.29;45.82
45441;BME280;31189;38.790;-77.084;2022-11-23T06:50:08;102136.16;;;4.03;46.22
45441;BME280;31189;38.790;-77.084;2022-11-23T06:52:36;102136.40;;;3.58;46.30
45441;BME280;31189;38.790;-77.084;2022-11-23T06:55:04;102142.47;;;3.25;47.03
45441;BME280;31189;38.790;-77.084;2022-11-23T06:57:32;102148.56;;;3.76;47.02
45441;BME280;31189;38.790;-77.084;2022-11-23T07:00:00;102154.27;;;3.29;48.15
45441;BME280;31189;38.790;-77.084;2022-11-23T07:02:28;102153.60;;;2.82;49.68
45441;BME280;31189;38.790;-77.084;2022-11-23T07:04:55;102153.70;;;3.38;49.16
45441;BME280;31189;38.790;-77.084;2022-11-23T07:07:23;102162.81;;;3.30;49.81
45441;BME280;31189;38.790;-77.084;2022-11-23T07:09:50;102163.89;;;3.27;49.03
45441;BME280;31189;38.790;-77.084;2022-11-23T07:12:17;102162.79;;;3.56;49.38
45441;BME280;31189;38.790;-77.084;2022-11-23T07:14:45;102161.58;;;3.06;48.28
45441;BME280;31189;38.790;-77.084;2022-11-23T07:17:12;102161.66;;;4.16;46.44
45441;BME280;31189;38.790;-77.084;2022-11-23T07:19:40;102163.34;;;3.80;46.79
45441;BME280;31189;38.790;-77.084;2022-11-23T07:22:08;102168.88;;;4.01;46.10
45441;BME280;31189;38.790;-77.084;2022-11-23T07:24:36;102168.57;;;4.25;45.73
45441;BME280;31189;38.790;-77.084;2022-11-23T07:27:04;102164.63;;;4.12;45.53
45441;BME280;31189;38.790;-77.084;2022-11-23T07:29:32;102160.71;;;4.34;45.43
45441;BME280;31189;38.790;-77.084;2022-11-23T07:31:59;102166.53;;;4.10;46.99
45441;BME280;31189;38.790;-77.084;2022-11-23T07:34:27;102166.39;;;4.58;45.38
45441;BME280;31189;38.790;-77.084;2022-11-23T07:36:55;102165.34;;;4.19;46.74
45441;BME280;31189;38.790;-77.084;2022-11-23T07:39:23;102166.05;;;4.14;46.84
45441;BME280;31189;38.790;-77.084;2022-11-23T07:41:51;102168.69;;;3.37;48.56
45441;BME280;31189;38.790;-77.084;2022-11-23T07:44:18;102167.84;;;3.83;48.18
45441;BME280;31189;38.790;-77.084;2022-11-23T07:46:46;102172.36;;;3.71;47.90
45441;BME280;31189;38.790;-77.084;2022-11-23T07:49:13;102173.77;;;3.29;48.34
45441;BME280;31189;38.790;-77.084;2022-11-23T07:51:41;102178.50;;;3.45;48.11
45441;BME280;31189;38.790;-77.084;2022-11-23T07:54:08;102175.61;;;2.62;49.83
45441;BME280;31189;38.790;-77.084;2022-11-23T07:56:36;102173.26;;;2.83;51.23
45441;BME280;31189;38.790;-77.084;2022-11-23T07:59:04;102177.16;;;2.89;50.19
45441;BME280;31189;38.790;-77.084;2022-11-23T08:01:32;102176.08;;;3.36;48.98
45441;BME280;31189;38.790;-77.084;2022-11-23T08:03:59;102172.28;;;2.79;50.47
45441;BME280;31189;38.790;-77.084;2022-11-23T08:06:28;102174.73;;;3.97;48.29
45441;BME280;31189;38.790;-77.084;2022-11-23T08:08:56;102180.88;;;2.24;51.85
45441;BME280;31189;38.790;-77.084;2022-11-23T08:11:24;102182.86;;;3.86;47.80
45441;BME280;31189;38.790;-77.084;2022-11-23T08:13:52;102183.23;;;3.69;48.41
45441;BME280;31189;38.790;-77.084;2022-11-23T08:16:19;102179.03;;;3.27;49.60
45441;BME280;31189;38.790;-77.084;2022-11-23T08:18:46;102180.96;;;4.29;47.76
45441;BME280;31189;38.790;-77.084;2022-11-23T08:21:14;102182.90;;;4.28;46.63
45441;BME280;31189;38.790;-77.084;2022-11-23T08:23:42;102179.79;;;3.76;47.63
45441;BME280;31189;38.790;-77.084;2022-11-23T08:26:10;102183.37;;;3.49;48.85
45441;BME280;31189;38.790;-77.084;2022-11-23T08:28:37;102177.63;;;3.57;47.83
45441;BME280;31189;38.790;-77.084;2022-11-23T08:31:06;102183.10;;;3.77;48.10
45441;BME280;31189;38.790;-77.084;2022-11-23T08:33:34;102184.80;;;3.89;48.15
45441;BME280;31189;38.790;-77.084;2022-11-23T08:36:04;102179.61;;;4.04;47.58
45441;BME280;31189;38.790;-77.084;2022-11-23T08:38:32;102181.06;;;3.46;48.97
45441;BME280;31189;38.790;-77.084;2022-11-23T08:41:02;102180.63;;;3.74;48.71
45441;BME280;31189;38.790;-77.084;2022-11-23T08:43:30;102182.01;;;3.40;48.79
45441;BME280;31189;38.790;-77.084;2022-11-23T08:45:59;102182.35;;;3.74;47.74
45441;BME280;31189;38.790;-77.084;2022-11-23T08:48:27;102177.74;;;3.24;48.17
45441;BME280;31189;38.790;-77.084;2022-11-23T08:50:58;102174.75;;;4.39;46.71
45441;BME280;31189;38.790;-77.084;2022-11-23T08:53:26;102178.02;;;4.20;46.23
45441;BME280;31189;38.790;-77.084;2022-11-23T08:55:54;102174.52;;;3.57;48.34
45441;BME280;31189;38.790;-77.084;2022-11-23T08:58:21;102171.90;;;3.18;49.41
45441;BME280;31189;38.790;-77.084;2022-11-23T09:00:49;102172.21;;;3.19;49.65
45441;BME280;31189;38.790;-77.084;2022-11-23T09:03:17;102173.85;;;3.61;48.79
45441;BME280;31189;38.790;-77.084;2022-11-23T09:05:44;102174.54;;;3.74;48.21
45441;BME280;31189;38.790;-77.084;2022-11-23T09:08:11;102171.04;;;4.17;47.85
45441;BME280;31189;38.790;-77.084;2022-11-23T09:10:40;102174.60;;;3.68;47.83
45441;BME280;31189;38.790;-77.084;2022-11-23T09:13:08;102173.85;;;2.84;49.70
45441;BME280;31189;38.790;-77.084;2022-11-23T09:15:36;102170.46;;;2.59;50.63
45441;BME280;31189;38.790;-77.084;2022-11-23T09:18:03;102170.15;;;2.37;51.88
45441;BME280;31189;38.790;-77.084;2022-11-23T09:20:31;102172.22;;;2.90;51.30
45441;BME280;31189;38.790;-77.084;2022-11-23T09:22:59;102170.88;;;2.63;52.63
45441;BME280;31189;38.790;-77.084;2022-11-23T09:25:27;102171.41;;;2.63;52.66
45441;BME280;31189;38.790;-77.084;2022-11-23T09:27:57;102174.16;;;4.10;48.52
45441;BME280;31189;38.790;-77.084;2022-11-23T09:30:25;102174.58;;;4.18;47.37
45441;BME280;31189;38.790;-77.084;2022-11-23T09:32:54;102176.65;;;4.04;47.60
45441;BME280;31189;38.790;-77.084;2022-11-23T09:35:22;102183.20;;;2.82;50.35
45441;BME280;31189;38.790;-77.084;2022-11-23T09:37:55;102179.77;;;3.33;49.13
45441;BME280;31189;38.790;-77.084;2022-11-23T09:40:24;102179.99;;;2.17;52.61
45441;BME280;31189;38.790;-77.084;2022-11-23T09:43:03;102179.84;;;2.73;52.08
45441;BME280;31189;38.790;-77.084;2022-11-23T09:45:38;102178.38;;;3.68;47.74
45441;BME280;31189;38.790;-77.084;2022-11-23T09:48:33;102183.40;;;3.55;48.04
45441;BME280;31189;38.790;-77.084;2022-11-23T09:51:13;102185.00;;;3.75;47.90
45441;BME280;31189;38.790;-77.084;2022-11-23T09:53:46;102184.64;;;3.81;48.41
45441;BME280;31189;38.790;-77.084;2022-11-23T09:56:19;102188.72;;;4.01;47.45
45441;BME280;31189;38.790;-77.084;2022-11-23T09:58:54;102189.80;;;3.50;49.10
45441;BME280;31189;38.790;-77.084;2022-11-23T10:01:24;102188.50;;;3.18;49.29
45441;BME280;31189;38.790;-77.084;2022-11-23T10:03:52;102186.87;;;2.08;51.52
45441;BME280;31189;38.790;-77.084;2022-11-23T10:06:22;102185.59;;;3.23;50.20
45441;BME280;31189;38.790;-77.084;2022-11-23T10:09:00;102187.61;;;3.04;50.47
45441;BME280;31189;38.790;-77.084;2022-11-23T10:11:46;102187.97;;;2.80;50.88
45441;BME280;31189;38.790;-77.084;2022-11-23T10:14:32;102192.24;;;3.04;50.66
45441;BME280;31189;38.790;-77.084;2022-11-23T10:17:11;102194.36;;;2.86;50.23
45441;BME280;31189;38.790;-77.084;2022-11-23T10:19:56;102196.53;;;3.28;49.08
45441;BME280;31189;38.790;-77.084;2022-11-23T10:22:32;102202.80;;;2.88;49.94
45441;BME280;31189;38.790;-77.084;2022-11-23T10:25:10;102206.07;;;3.58;48.05
45441;BME280;31189;38.790;-77.084;2022-11-23T10:27:40;102205.67;;;3.48;48.82
45441;BME280;31189;38.790;-77.084;2022-11-23T10:30:11;102208.76;;;3.28;48.74
45441;BME280;31189;38.790;-77.084;2022-11-23T10:32:44;102211.87;;;3.22;48.70
45441;BME280;31189;38.790;-77.084;2022-11-23T10:35:15;102209.62;;;2.55;50.15
45441;BME280;31189;38.790;-77.084;2022-11-23T10:37:43;102210.22;;;3.17;50.14
45441;BME280;31189;38.790;-77.084;2022-11-23T10:40:15;102213.42;;;3.46;48.66
45441;BME280;31189;38.790;-77.084;2022-11-23T10:42:47;102210.27;;;3.70;47.80
45441;BME280;31189;38.790;-77.084;2022-11-23T10:45:21;102213.13;;;3.68;48.02
45441;BME280;31189;38.790;-77.084;2022-11-23T10:47:50;102211.99;;;2.89;49.65
45441;BME280;31189;38.790;-77.084;2022-11-23T10:50:23;102212.32;;;2.85;49.52
45441;BME280;31189;38.790;-77.084;2022-11-23T10:52:53;102210.74;;;2.76;49.96
45441;BME280;31189;38.790;-77.084;2022-11-23T10:55:26;102216.48;;;2.90;50.01
45441;BME280;31189;38.790;-77.084;2022-11-23T10:57:55;102221.30;;;3.21;49.44
45441;BME280;31189;38.790;-77.084;2022-11-23T11:00:24;102221.31;;;3.37;49.56
45441;BME280;31189;38.790;-77.084;2022-11-23T11:02:53;102223.08;;;3.37;49.14
45441;BME280;31189;38.790;-77.084;2022-11-23T11:05:28;102224.36;;;3.27;49.75
45441;BME280;31189;38.790;-77.084;2022-11-23T11:07:57;102226.35;;;3.37;48.62
45441;BME280;31189;38.790;-77.084;2022-11-23T11:10:33;102231.09;;;2.72;49.77
45441;BME280;31189;38.790;-77.084;2022-11-23T11:13:02;102236.13;;;3.48;48.20
45441;BME280;31189;38.790;-77.084;2022-11-23T11:15:30;102239.43;;;3.63;47.00
45441;BME280;31189;38.790;-77.084;2022-11-23T11:17:58;102239.16;;;3.54;46.43
45441;BME280;31189;38.790;-77.084;2022-11-23T11:20:32;102236.87;;;2.75;48.38
45441;BME280;31189;38.790;-77.084;2022-11-23T11:23:03;102240.42;;;3.02;48.63
45441;BME280;31189;38.790;-77.084;2022-11-23T11:25:35;102243.02;;;3.34;48.04
45441;BME280;31189;38.790;-77.084;2022-11-23T11:28:05;102246.01;;;3.31;46.92
45441;BME280;31189;38.790;-77.084;2022-11-23T11:30:52;102245.37;;;3.24;47.99
45441;BME280;31189;38.790;-77.084;2022-11-23T11:33:27;102244.58;;;3.09;47.83
45441;BME280;31189;38.790;-77.084;2022-11-23T11:35:59;102242.54;;;2.76;48.66
45441;BME280;31189;38.790;-77.084;2022-11-23T11:38:31;102244.47;;;2.82;48.58
45441;BME280;31189;38.790;-77.084;2022-11-23T11:41:06;102246.85;;;3.08;48.05
45441;BME280;31189;38.790;-77.084;2022-11-23T11:43:38;102250.71;;;2.66;48.25
45441;BME280;31189;38.790;-77.084;2022-11-23T11:46:13;102250.08;;;3.00;47.15
45441;BME280;31189;38.790;-77.084;2022-11-23T11:48:44;102248.98;;;3.17;46.64
45441;BME280;31189;38.790;-77.084;2022-11-23T11:51:21;102249.77;;;2.94;46.91
45441;BME280;31189;38.790;-77.084;2022-11-23T11:53:56;102252.92;;;2.87;47.81
45441;BME280;31189;38.790;-77.084;2022-11-23T11:56:31;102255.39;;;2.48;48.21
45441;BME280;31189;38.790;-77.084;2022-11-23T11:59:15;102259.00;;;3.12;46.89
45441;BME280;31189;38.790;-77.084;2022-11-23T12:01:53;102256.47;;;3.15;46.41
45441;BME280;31189;38.790;-77.084;2022-11-23T12:04:26;102255.05;;;2.43;47.98
45441;BME280;31189;38.790;-77.084;2022-11-23T12:07:03;102255.39;;;2.40;48.73
45441;BME280;31189;38.790;-77.084;2022-11-23T12:09:36;102262.50;;;1.76;49.38
45441;BME280;31189;38.790;-77.084;2022-11-23T12:12:14;102260.99;;;2.29;47.84
45441;BME280;31189;38.790;-77.084;2022-11-23T12:14:43;102263.62;;;2.07;49.02
45441;BME280;31189;38.790;-77.084;2022-11-23T12:17:29;102265.85;;;2.35;48.51
45441;BME280;31189;38.790;-77.084;2022-11-23T12:20:07;102266.61;;;2.20;49.56
45441;BME280;31189;38.790;-77.084;2022-11-23T12:22:47;102274.64;;;1.55;50.71
45441;BME280;31189;38.790;-77.084;2022-11-23T12:25:26;102276.66;;;2.04;49.79
45441;BME280;31189;38.790;-77.084;2022-11-23T12:28:04;102283.60;;;2.19;49.90
45441;BME280;31189;38.790;-77.084;2022-11-23T12:30:45;102282.15;;;2.01;50.63
45441;BME280;31189;38.790;-77.084;2022-11-23T12:33:27;102283.94;;;2.44;49.92
45441;BME280;31189;38.790;-77.084;2022-11-23T12:36:10;102284.59;;;2.70;49.30
45441;BME280;31189;38.790;-77.084;2022-11-23T12:38:45;102286.37;;;2.82;48.86
45441;BME280;31189;38.790;-77.084;2022-11-23T12:41:23;102294.41;;;2.79;48.46
45441;BME280;31189;38.790;-77.084;2022-11-23T12:44:05;102297.44;;;3.08;48.17
45441;BME280;31189;38.790;-77.084;2022-11-23T12:46:41;102299.87;;;3.35;48.05
45441;BME280;31189;38.790;-77.084;2022-11-23T12:49:22;102304.10;;;3.19;48.42
45441;BME280;31189;38.790;-77.084;2022-11-23T12:52:02;102306.03;;;3.33;48.26
45441;BME280;31189;38.790;-77.084;2022-11-23T12:54:42;102302.90;;;2.86;48.98
45441;BME280;31189;38.790;-77.084;2022-11-23T12:57:16;102307.07;;;2.99;48.67